createdAt,value
2018-07-28T19:17:57.009Z,100381.52
2018-07-28T19:20:34.168Z,100371.28
2018-07-28T19:23:09.317Z,100375.77
2018-07-28T19:25:39.453Z,100377.27
2018-07-28T19:28:14.010Z,100372.02
2018-07-28T19:30:42.526Z,100366.33
2018-07-28T19:33:11.637Z,100365.20
2018-07-28T19:35:46.428Z,100367.16
2018-07-28T19:38:14.833Z,100356.69
2018-07-28T19:40:43.221Z,100364.66
2018-07-28T19:43:11.581Z,100368.86
2018-07-28T19:45:40.519Z,100392.27
2018-07-28T19:48:09.650Z,100417.30
2018-07-28T19:50:38.130Z,100447.30
2018-07-28T19:53:08.859Z,100461.59
2018-07-28T19:55:39.733Z,100468.45
2018-07-28T19:58:09.157Z,100481.11
2018-07-28T20:00:39.566Z,100492.17
2018-07-28T20:03:08.893Z,100496.02
2018-07-28T20:05:38.117Z,100492.75
2018-07-28T20:08:07.798Z,100490.20
2018-07-28T20:10:52.824Z,100498.41
2018-07-28T20:13:22.316Z,100492.80
2018-07-28T20:15:50.723Z,100496.20
2018-07-28T20:18:19.084Z,100501.14
2018-07-28T20:20:47.613Z,100508.68
2018-07-28T20:23:16.016Z,100513.25
2018-07-28T20:25:44.517Z,100515.69
2018-07-28T20:28:12.902Z,100518.12
2018-07-28T20:30:42.873Z,100507.20
2018-07-28T20:33:11.238Z,100505.33
2018-07-28T20:35:39.659Z,100503.08
2018-07-28T20:38:08.195Z,100493.42
2018-07-28T20:40:37.944Z,100482.36
2018-07-28T20:43:08.316Z,100483.91
2018-07-28T20:45:37.961Z,100479.39
2018-07-28T20:48:06.549Z,100481.64
2018-07-28T20:50:36.861Z,100485.48
2018-07-28T20:53:05.305Z,100494.02
2018-07-28T20:55:34.701Z,100507.99
2018-07-28T20:58:04.091Z,100500.89
2018-07-28T21:00:32.458Z,100511.66
2018-07-28T21:03:00.979Z,100515.10
2018-07-28T21:05:36.062Z,100515.17
2018-07-28T21:08:04.550Z,100512.85
2018-07-28T21:10:32.936Z,100523.16
2018-07-28T21:13:01.479Z,100525.37
2018-07-28T21:15:29.845Z,100523.51
2018-07-28T21:17:58.276Z,100515.66
2018-07-28T21:20:26.652Z,100521.06
2018-07-28T21:22:55.055Z,100520.78
2018-07-28T21:25:24.446Z,100508.58
2018-07-28T21:27:53.087Z,100510.55
2018-07-28T21:30:23.410Z,100512.44
2018-07-28T21:32:52.910Z,100518.53
2018-07-28T21:35:22.370Z,100508.88
2018-07-28T21:37:52.421Z,100516.31
2018-07-28T21:40:20.784Z,100518.38
2018-07-28T21:42:49.181Z,100525.58
2018-07-28T21:45:17.650Z,100528.64
2018-07-28T21:47:46.026Z,100527.00
2018-07-28T21:50:14.422Z,100524.50
2018-07-28T21:52:42.783Z,100522.77
2018-07-28T21:55:11.210Z,100524.28
2018-07-28T21:57:39.767Z,100528.05
2018-07-28T22:00:09.611Z,100527.36
2018-07-28T22:02:39.442Z,100522.23
2018-07-28T22:05:08.890Z,100518.13
2018-07-28T22:07:37.609Z,100519.80
2018-07-28T22:10:07.188Z,100525.61
2018-07-28T22:12:36.000Z,100534.67
2018-07-28T22:15:08.140Z,100542.36
2018-07-28T22:17:36.998Z,100549.69
2018-07-28T22:20:11.580Z,100558.60
2018-07-28T22:22:47.977Z,100570.13
2018-07-28T22:25:16.447Z,100577.13
2018-07-28T22:27:44.949Z,100594.10
2018-07-28T22:30:14.344Z,100595.68
2018-07-28T22:32:42.725Z,100605.19
2018-07-28T22:35:12.023Z,100607.79
2018-07-28T22:37:40.419Z,100610.11
2018-07-28T22:40:09.709Z,100618.48
2018-07-28T22:42:43.826Z,100618.83
2018-07-28T22:45:13.213Z,100605.93
2018-07-28T22:47:42.619Z,100603.61
2018-07-28T22:50:11.034Z,100595.98
2018-07-28T22:52:39.673Z,100598.14
2018-07-28T22:55:09.102Z,100590.66
2018-07-28T22:57:38.565Z,100601.53
2018-07-28T23:00:09.345Z,100607.04
2018-07-28T23:02:38.687Z,100607.44
2018-07-28T23:05:08.717Z,100607.34
2018-07-28T23:07:37.765Z,100606.75
2018-07-28T23:10:08.273Z,100620.39
2018-07-28T23:12:38.320Z,100616.00
2018-07-28T23:15:07.773Z,100611.88
2018-07-28T23:17:38.482Z,100622.59
2018-07-28T23:20:08.551Z,100627.67
2018-07-28T23:22:37.678Z,100648.70
2018-07-28T23:25:08.081Z,100650.58
2018-07-28T23:27:36.903Z,100660.08
2018-07-28T23:30:10.225Z,100656.80
2018-07-28T23:32:40.088Z,100665.56
2018-07-28T23:35:09.108Z,100676.16
2018-07-28T23:37:37.761Z,100676.88
2018-07-28T23:40:06.449Z,100687.33
2018-07-28T23:42:34.829Z,100694.86
2018-07-28T23:45:03.245Z,100694.22
2018-07-28T23:47:32.469Z,100701.17
2018-07-28T23:50:01.958Z,100692.59
2018-07-28T23:52:30.350Z,100702.97
2018-07-28T23:54:59.811Z,100696.17
2018-07-28T23:57:28.289Z,100706.32
2018-07-28T23:59:56.950Z,100711.64
